Agat, GU

6:36 AM ChST on May 29, 2015 (GMT +1000)
Ordot Dump | | Change Station
CLOSE
Current Station
Personal Weather Station
Location: Chalan Pago Ordot,
Elevation: 282 ft
Nearby Weather Stations

Elev 282 ft 13.44 °N, 144.75 °E | Updated 23 seconds ago

Light Rain
Light Rain
76.6 °F
Feels Like 77 °F
N
2.0
Wind Variable Wind from SSW
Gusts 5.0 mph

Today
High -- | Low -- °F
--% Chance of Precip.
Yesterday
High -- | Low -- °F
Precip. -- in
5:53 AM 6:44 PM
Waxing Gibbous, 78% visible
Pressure 29.88 in
Visibility 10.0 miles
Clouds Mostly Cloudy 2700 ft
Overcast 3400 ft
Heat Index 77 °F
Dew Point 74 °F
Humidity 92%
Rainfall 2.01 in
Snow Depth Not available.
UV 0 out of 12
Pollen Not available.
Air Quality Not available.
Flu Activity Regional
METAR PGUM 281954Z 14009KT 10SM -RA BKN027 OVC034 25/23 A2990 RMK AO2 RAB50 SLP117 FQT LTGICCC DSNT SW-W P0000 T02500228 $

More Conditions Fewer Conditions

Pressure 29.88 in
Visibility 10.0 miles
Clouds Mostly Cloudy 2700 ft
Overcast 3400 ft
Heat Index 77 °F
Dew Point 74 °F
Humidity 92%
Rainfall 2.01 in
Snow Depth Not available.
UV 0 out of 12
Pollen Not available.
Air Quality Not available.
Flu Activity Regional
METAR PGUM 281954Z 14009KT 10SM -RA BKN027 OVC034 25/23 A2990 RMK AO2 RAB50 SLP117 FQT LTGICCC DSNT SW-W P0000 T02500228 $

More Conditions Fewer Conditions

10-Day Weather Forecast

Almanac

Astronomy

May. 29, 2015 Rise Set
Actual Time
Civil Twilight
Nautical Twilight
Astronomical Twilight
Moon
Length of Visible Light
Length of Day
Tomorrow will be .
, % of the Moon is Illuminated

Today's Extremes

State Highs State Lows

Community

WunderPhotos

Upload Photos

1,825,056 photos uploaded!

WunderBlogs® & News

Nearby

Air Quality

  Air Quality AQ Index Pollutant
Not available.

Snow Depth

Station Depth Elevation

Earthquake Activity

City Distance Mag. Time & Date
Minimum magnitude displayed is 2.5.

Coastal Water Temperatures

Place Temperature

Stations

Nearby Weather Stations

Station Location Temp. Windchill Dew Point Humidity Wind Precip. Elev Updated Type